Time;durP1;ratioP1;P1;durP2;ratioP2;P2;SDS_P1;SDS_P2;PMS_P1;PMS_P2;Temp;Humidity;BMP_temperature;BMP_pressure;BME280_temperature;BME280_humidity;BME280_pressure;Samples;Min_cycle;Max_cycle;Signal;HPM_P1;HPM_P2
2021/07/06 00:00:56;;;;;;;1.38;0.70;;;16.80;99.90;;;;;;5064356;28;19917;-69
2021/07/06 00:03:21;;;;;;;;;;;16.70;99.90;;;;;;5064456;28;20480;-69
2021/07/06 00:05:47;;;;;;;3.97;0.95;;;16.70;99.90;;;;;;5059337;28;19976;-70
2021/07/06 00:08:13;;;;;;;;;;;16.70;99.90;;;;;;5056314;28;20049;-70
2021/07/06 00:10:38;;;;;;;1.75;0.82;;;16.70;99.90;;;;;;5046449;28;19929;-70
2021/07/06 00:13:04;;;;;;;;;;;16.70;99.90;;;;;;5061040;28;20114;-71
2021/07/06 00:15:31;;;;;;;2.70;1.05;;;16.70;99.90;;;;;;5062839;28;19917;-71
2021/07/06 00:17:57;;;;;;;1.42;0.80;;;16.70;99.90;;;;;;5057273;28;20119;-71
2021/07/06 00:20:26;;;;;;;;;;;16.70;99.90;;;;;;5052136;28;20068;-69
2021/07/06 00:22:52;;;;;;;0.90;0.80;;;16.70;99.90;;;;;;5050445;28;19916;-69
2021/07/06 00:25:19;;;;;;;1.05;0.80;;;16.70;99.90;;;;;;5050924;28;20044;-69
2021/07/06 00:27:45;;;;;;;1.70;1.00;;;16.70;99.90;;;;;;5050722;28;20192;-68
2021/07/06 00:30:11;;;;;;;4.88;1.10;;;16.70;99.90;;;;;;5050420;28;20523;-69
2021/07/06 00:32:37;;;;;;;6.20;1.48;;;16.80;99.90;;;;;;5050503;28;20041;-68
2021/07/06 00:35:03;;;;;;;;;;;16.70;99.90;;;;;;5051509;28;20044;-69
2021/07/06 00:37:29;;;;;;;5.50;0.82;;;16.70;99.90;;;;;;5050524;28;20323;-69
2021/07/06 00:39:57;;;;;;;;;;;16.70;99.90;;;;;;5050531;28;20106;-69
2021/07/06 00:42:22;;;;;;;3.47;0.75;;;16.70;99.90;;;;;;5048999;28;19924;-68
2021/07/06 00:44:48;;;;;;;;;;;16.70;99.90;;;;;;5051094;28;20045;-68
2021/07/06 00:47:14;;;;;;;3.67;0.82;;;16.70;99.90;;;;;;5050250;28;20454;-69
2021/07/06 00:49:39;;;;;;;;;;;16.70;99.90;;;;;;5051324;28;20141;-68
2021/07/06 00:52:06;;;;;;;1.15;0.80;;;16.70;99.90;;;;;;5049938;28;19962;-69
2021/07/06 00:54:31;;;;;;;4.68;1.25;;;16.60;99.90;;;;;;5050520;28;20048;-69
2021/07/06 00:56:57;;;;;;;;;;;16.60;99.90;;;;;;5050374;28;20045;-69
2021/07/06 00:59:23;;;;;;;3.13;0.90;;;16.50;99.90;;;;;;5050502;28;19925;-69
2021/07/06 01:01:49;;;;;;;;;;;16.50;99.90;;;;;;5048508;28;20562;-69
2021/07/06 01:04:15;;;;;;;1.45;0.95;;;16.50;99.90;;;;;;5049818;28;20157;-68
2021/07/06 01:06:40;;;;;;;;;;;16.50;99.90;;;;;;5048767;28;20044;-69
2021/07/06 01:09:06;;;;;;;2.22;0.93;;;16.30;99.90;;;;;;5050159;28;19974;-69
2021/07/06 01:11:33;;;;;;;;;;;16.30;99.90;;;;;;5050416;28;20045;-69
2021/07/06 01:13:59;;;;;;;1.98;1.08;;;16.20;99.90;;;;;;5050229;28;19924;-71
2021/07/06 01:16:25;;;;;;;;;;;16.10;99.90;;;;;;5049501;28;20052;-71
2021/07/06 01:18:50;;;;;;;1.17;0.77;;;16.00;99.90;;;;;;5050494;28;20003;-69
2021/07/06 01:21:16;;;;;;;;;;;16.00;99.90;;;;;;5049362;28;20074;-69
2021/07/06 01:23:42;;;;;;;1.33;0.90;;;15.90;99.90;;;;;;5047940;28;20001;-69
2021/07/06 01:26:08;;;;;;;3.42;1.10;;;15.90;99.90;;;;;;5049269;28;20049;-69
2021/07/06 01:28:35;;;;;;;1.45;0.90;;;15.90;99.90;;;;;;5050017;28;20028;-69
2021/07/06 01:31:01;;;;;;;4.47;1.20;;;16.00;99.90;;;;;;5047186;28;20033;-68
2021/07/06 01:33:29;;;;;;;3.05;0.90;;;15.90;99.90;;;;;;5050086;28;20679;-69
2021/07/06 01:35:59;;;;;;;1.42;1.10;;;15.90;99.90;;;;;;5049701;28;20049;-69
2021/07/06 01:38:26;;;;;;;3.85;1.17;;;15.90;99.90;;;;;;5049753;28;20076;-69
2021/07/06 01:40:52;;;;;;;5.07;1.20;;;15.90;99.90;;;;;;5049192;28;20040;-68
2021/07/06 01:43:18;;;;;;;;;;;15.90;99.90;;;;;;5050839;28;20045;-70
2021/07/06 01:45:43;;;;;;;2.63;0.95;;;15.90;99.90;;;;;;5048916;28;20008;-69
2021/07/06 01:48:09;;;;;;;;;;;15.90;99.90;;;;;;5050102;28;20106;-69
2021/07/06 01:50:40;;;;;;;6.22;1.15;;;15.80;99.90;;;;;;5048655;28;19974;-68
2021/07/06 01:53:14;;;;;;;3.80;0.80;;;15.60;99.90;;;;;;5047062;28;20033;-72
2021/07/06 01:55:46;;;;;;;5.60;1.05;;;15.60;99.90;;;;;;5041903;28;20051;-70
2021/07/06 01:58:14;;;;;;;2.00;0.80;;;15.60;99.90;;;;;;5033531;28;20060;-70
2021/07/06 02:00:46;;;;;;;0.90;0.80;;;15.60;99.90;;;;;;5048909;28;20047;-69
2021/07/06 02:03:12;;;;;;;5.72;1.08;;;15.60;99.90;;;;;;5049700;28;20092;-69
2021/07/06 02:05:40;;;;;;;3.70;1.00;;;15.60;99.90;;;;;;5048649;28;20052;-69
2021/07/06 02:08:08;;;;;;;0.98;0.63;;;15.60;99.90;;;;;;5048919;28;20048;-70
2021/07/06 02:10:34;;;;;;;4.95;1.00;;;15.60;99.90;;;;;;5049092;28;20131;-69
2021/07/06 02:13:02;;;;;;;2.67;0.98;;;15.50;99.90;;;;;;5047786;28;20045;-69
2021/07/06 02:15:29;;;;;;;2.17;0.90;;;15.60;99.90;;;;;;5047992;28;22117;-68
2021/07/06 02:17:54;;;;;;;3.72;1.10;;;15.60;99.90;;;;;;5049689;28;20041;-69
2021/07/06 02:20:20;;;;;;;;;;;15.50;99.90;;;;;;5049197;28;20044;-69
2021/07/06 02:22:47;;;;;;;2.20;0.90;;;15.50;99.90;;;;;;5047591;28;19917;-69
2021/07/06 02:25:15;;;;;;;5.13;0.98;;;15.60;99.90;;;;;;5048782;28;20056;-68
2021/07/06 02:27:43;;;;;;;2.83;0.90;;;15.60;99.90;;;;;;5047758;28;20033;-69
2021/07/06 02:30:11;;;;;;;1.92;0.80;;;15.60;99.90;;;;;;5045098;28;20045;-69
2021/07/06 02:32:37;;;;;;;5.72;1.10;;;15.60;99.90;;;;;;5048498;28;20036;-69
2021/07/06 02:35:04;;;;;;;;;;;15.60;99.90;;;;;;5048828;28;20516;-69
2021/07/06 02:37:29;;;;;;;;;;;15.50;99.90;;;;;;5048624;28;20621;-69
2021/07/06 02:39:55;;;;;;;2.58;1.15;;;15.50;99.90;;;;;;5048178;28;20384;-69
2021/07/06 02:42:21;;;;;;;;;;;15.50;99.90;;;;;;5048619;28;20051;-69
2021/07/06 02:44:46;;;;;;;3.10;1.48;;;15.50;99.90;;;;;;5048603;28;19916;-69
2021/07/06 02:47:12;;;;;;;;;;;15.50;99.90;;;;;;5064942;28;20041;-69
2021/07/06 02:49:37;;;;;;;6.25;1.20;;;15.50;99.90;;;;;;5068500;28;19923;-69
2021/07/06 02:52:03;;;;;;;;;;;15.50;99.90;;;;;;5068037;28;20548;-69
2021/07/06 02:54:29;;;;;;;5.25;1.63;;;15.40;99.90;;;;;;5069707;28;19978;-71
2021/07/06 02:56:54;;;;;;;;;;;15.30;99.90;;;;;;5059417;28;20052;-69
2021/07/06 02:59:20;;;;;;;1.00;0.90;;;15.30;99.90;;;;;;5063569;28;19923;-69
2021/07/06 03:01:45;;;;;;;;;;;15.40;99.90;;;;;;5068928;28;20036;-69
2021/07/06 03:04:11;;;;;;;2.55;1.10;;;15.40;99.90;;;;;;5069026;28;19923;-70
2021/07/06 03:06:36;;;;;;;;;;;15.40;99.90;;;;;;5066206;28;20045;-70
2021/07/06 03:09:02;;;;;;;4.45;0.95;;;15.30;99.90;;;;;;5069083;28;20011;-70
2021/07/06 03:11:28;;;;;;;;;;;15.30;99.90;;;;;;5068695;28;20040;-69
2021/07/06 03:13:53;;;;;;;1.30;0.93;;;15.30;99.90;;;;;;5068155;28;19955;-71
2021/07/06 03:16:19;;;;;;;;;;;15.40;99.90;;;;;;5068121;28;20044;-67
2021/07/06 03:18:45;;;;;;;2.22;1.05;;;15.40;99.90;;;;;;5068731;28;19928;-68
2021/07/06 03:21:10;;;;;;;;;;;15.50;99.90;;;;;;5068412;28;20040;-67
2021/07/06 03:23:36;;;;;;;4.97;1.50;;;15.40;99.90;;;;;;5069139;28;19916;-67
2021/07/06 03:26:02;;;;;;;;;;;15.40;99.90;;;;;;5069137;28;20079;-70
2021/07/06 03:28:27;;;;;;;2.95;1.10;;;15.30;99.90;;;;;;5067335;28;19920;-69
2021/07/06 03:30:53;;;;;;;;;;;15.30;99.90;;;;;;5067977;28;20503;-69
2021/07/06 03:33:18;;;;;;;7.80;1.20;;;15.30;99.90;;;;;;5068061;28;19923;-69
2021/07/06 03:35:44;;;;;;;;;;;15.40;99.90;;;;;;5068982;28;20084;-68
2021/07/06 03:38:10;;;;;;;4.40;1.63;;;15.40;99.90;;;;;;5068102;28;19916;-69
2021/07/06 03:40:35;;;;;;;;;;;15.40;99.90;;;;;;5067864;28;20035;-68
2021/07/06 03:43:02;;;;;;;2.83;1.15;;;15.40;99.90;;;;;;5066607;28;20007;-69
2021/07/06 03:45:27;;;;;;;6.32;1.30;;;15.40;99.90;;;;;;5067559;28;20047;-69
2021/07/06 03:47:53;;;;;;;;;;;15.40;99.90;;;;;;5068549;28;20040;-71
2021/07/06 03:50:22;;;;;;;5.20;1.50;;;15.50;99.90;;;;;;5064763;28;20379;-70
2021/07/06 03:52:50;;;;;;;6.18;1.27;;;15.60;99.90;;;;;;5067425;28;20036;-70
2021/07/06 03:55:17;;;;;;;2.65;1.40;;;15.70;99.90;;;;;;5071232;28;20045;-70
2021/07/06 03:57:43;;;;;;;6.22;1.27;;;15.80;99.90;;;;;;5072289;28;20098;-70
2021/07/06 04:00:12;;;;;;;3.13;1.05;;;15.90;99.90;;;;;;5069599;28;20041;-71
2021/07/06 04:02:39;;;;;;;10.65;1.20;;;16.00;99.90;;;;;;5071150;28;20089;-68
2021/07/06 04:05:07;;;;;;;3.08;1.08;;;16.10;99.90;;;;;;5071339;28;20049;-69
2021/07/06 04:07:32;;;;;;;2.00;1.23;;;16.20;99.90;;;;;;5071039;28;20094;-69
2021/07/06 04:09:58;;;;;;;;;;;16.20;99.90;;;;;;5072397;28;20036;-68
2021/07/06 04:12:24;;;;;;;3.53;1.60;;;16.30;99.90;;;;;;5071552;28;19966;-69
2021/07/06 04:14:49;;;;;;;;;;;16.40;99.90;;;;;;5072215;28;20075;-70
2021/07/06 04:17:15;;;;;;;2.58;1.67;;;16.40;99.90;;;;;;5070446;28;20360;-69
2021/07/06 04:19:41;;;;;;;;;;;16.50;99.90;;;;;;5072409;28;20090;-67
2021/07/06 04:22:06;;;;;;;8.20;2.53;;;16.50;99.90;;;;;;5071004;28;19995;-71
2021/07/06 04:24:32;;;;;;;;;;;16.60;99.90;;;;;;5071656;28;20037;-71
2021/07/06 04:26:59;;;;;;;3.00;2.30;;;16.70;99.90;;;;;;5061268;28;19925;-70
2021/07/06 04:29:26;;;;;;;3.22;2.42;;;16.70;99.90;;;;;;5073854;28;20097;-70
2021/07/06 04:31:53;;;;;;;4.70;2.75;;;16.80;99.90;;;;;;5068074;28;20032;-70
2021/07/06 04:34:20;;;;;;;3.80;2.55;;;17.00;99.90;;;;;;5064588;28;20041;-70
2021/07/06 04:36:45;;;;;;;6.22;3.55;;;17.20;99.90;;;;;;5069867;28;20040;-69
2021/07/06 04:39:11;;;;;;;;;;;17.20;99.90;;;;;;5064595;28;20095;-70
2021/07/06 04:41:36;;;;;;;7.63;4.05;;;17.30;99.90;;;;;;5057684;28;20319;-71
2021/07/06 04:44:02;;;;;;;;;;;17.40;99.90;;;;;;5061213;28;20040;-71
2021/07/06 04:46:27;;;;;;;7.35;4.65;;;17.30;99.90;;;;;;5070070;28;19924;-69
2021/07/06 04:48:53;;;;;;;;;;;17.40;99.90;;;;;;5071909;28;20492;-69
2021/07/06 04:51:19;;;;;;;6.22;4.90;;;17.30;99.90;;;;;;5070239;28;19916;-69
2021/07/06 04:53:45;;;;;;;;;;;17.30;99.90;;;;;;5072100;28;20083;-70
2021/07/06 04:56:11;;;;;;;6.88;5.10;;;17.30;99.90;;;;;;5070377;28;19999;-69
2021/07/06 04:58:37;;;;;;;;;;;17.50;99.90;;;;;;5072314;28;20094;-70
2021/07/06 05:01:04;;;;;;;9.82;4.65;;;17.70;99.90;;;;;;5068305;28;19920;-69
2021/07/06 05:03:32;;;;;;;8.55;5.22;;;17.70;99.90;;;;;;5063597;28;20044;-70
2021/07/06 05:05:58;;;;;;;10.75;5.70;;;17.70;99.90;;;;;;5060033;28;20187;-69
2021/07/06 05:08:24;;;;;;;6.78;4.28;;;17.70;99.90;;;;;;5065664;28;20380;-69
2021/07/06 05:10:50;;;;;;;;;;;17.60;99.90;;;;;;5068058;28;20047;-69
2021/07/06 05:13:15;;;;;;;7.63;5.70;;;17.70;99.90;;;;;;5064028;28;19920;-69
2021/07/06 05:15:41;;;;;;;7.22;4.57;;;17.70;99.90;;;;;;5062375;28;20041;-69
2021/07/06 05:18:07;;;;;;;;;;;17.80;99.90;;;;;;5059786;28;20144;-69
2021/07/06 05:20:33;;;;;;;7.15;4.85;;;17.70;99.90;;;;;;5061129;28;19921;-69
2021/07/06 05:22:58;;;;;;;;;;;17.70;99.90;;;;;;5062237;28;20404;-68
2021/07/06 05:25:24;;;;;;;5.88;3.83;;;17.90;99.90;;;;;;5095451;28;19916;-69
2021/07/06 05:27:49;;;;;;;;;;;17.80;99.90;;;;;;5060388;28;20040;-69
2021/07/06 05:30:16;;;;;;;4.03;2.58;;;17.90;99.90;;;;;;5065262;28;20038;-69
2021/07/06 05:32:42;;;;;;;6.22;2.47;;;17.90;99.90;;;;;;5060563;28;20086;-68
2021/07/06 05:35:08;;;;;;;;;;;18.00;99.90;;;;;;5059689;28;20440;-69
2021/07/06 05:37:36;;;;;;;9.00;2.92;;;18.20;99.90;;;;;;5055507;28;19973;-71
2021/07/06 05:40:07;;;;;;;3.97;2.03;;;18.30;99.90;;;;;;5059797;28;20571;-70
2021/07/06 05:42:37;;;;;;;5.25;2.10;;;18.40;99.90;;;;;;5061122;28;20044;-71
2021/07/06 05:45:05;;;;;;;5.15;1.73;;;18.60;99.90;;;;;;5058009;28;20040;-71
2021/07/06 05:47:34;;;;;;;4.15;1.40;;;18.80;99.90;;;;;;5059057;28;20132;-71
2021/07/06 05:50:00;;;;;;;3.55;1.30;;;18.80;99.90;;;;;;5058029;28;20076;-71
2021/07/06 05:52:27;;;;;;;;;;;18.80;99.90;;;;;;5057997;28;20075;-71
2021/07/06 05:54:54;;;;;;;4.93;1.80;;;18.80;99.90;;;;;;5059693;28;19924;-71
2021/07/06 05:57:29;;;;;;;6.90;1.40;;;18.80;99.90;;;;;;5062131;28;20044;-71
2021/07/06 05:59:55;;;;;;;3.20;1.42;;;18.90;99.90;;;;;;5064543;28;20032;-71
2021/07/06 06:02:21;;;;;;;13.80;1.63;;;19.00;99.90;;;;;;5058094;28;20032;-70
2021/07/06 06:04:48;;;;;;;4.07;2.10;;;18.90;99.90;;;;;;5059544;28;20044;-68
2021/07/06 06:07:13;;;;;;;;;;;18.80;99.90;;;;;;5058844;28;20037;-69
2021/07/06 06:09:39;;;;;;;4.00;1.92;;;18.70;99.90;;;;;;5059727;28;19948;-68
2021/07/06 06:12:05;;;;;;;;;;;18.70;99.90;;;;;;5057192;28;20029;-70
2021/07/06 06:14:30;;;;;;;4.40;2.50;;;18.60;99.90;;;;;;5055605;28;19981;-69
2021/07/06 06:16:56;;;;;;;4.80;2.75;;;18.50;99.90;;;;;;5058174;28;20051;-69
2021/07/06 06:19:22;;;;;;;3.42;1.65;;;18.50;99.90;;;;;;5060790;28;20056;-70
2021/07/06 06:21:47;;;;;;;;;;;18.50;99.90;;;;;;5056842;28;20028;-69
2021/07/06 06:24:13;;;;;;;5.22;2.50;;;18.50;99.90;;;;;;5056740;28;19973;-69
2021/07/06 06:26:38;;;;;;;;;;;18.60;99.90;;;;;;5059105;28;20098;-69
2021/07/06 06:29:04;;;;;;;3.13;1.30;;;18.60;99.90;;;;;;5060569;28;19920;-70
2021/07/06 06:31:29;;;;;;;2.80;1.48;;;18.60;99.90;;;;;;5062921;28;20504;-71
2021/07/06 06:33:55;;;;;;;;;;;18.80;99.90;;;;;;5057693;28;20041;-70
2021/07/06 06:36:20;;;;;;;2.97;1.27;;;18.90;99.90;;;;;;5056282;28;19917;-71
2021/07/06 06:38:46;;;;;;;3.75;1.45;;;19.00;99.90;;;;;;5057022;28;20153;-71
2021/07/06 06:41:13;;;;;;;2.55;1.20;;;19.00;99.90;;;;;;5057590;28;20035;-71
2021/07/06 06:43:38;;;;;;;8.98;2.00;;;19.00;99.90;;;;;;5055078;28;20025;-71
2021/07/06 06:46:04;;;;;;;;;;;19.00;99.90;;;;;;5055864;28;20048;-70
2021/07/06 06:48:30;;;;;;;2.50;1.30;;;19.00;99.90;;;;;;5067975;28;19920;-69
2021/07/06 06:50:56;;;;;;;1.58;1.08;;;19.00;99.90;;;;;;5067787;28;20033;-70
2021/07/06 06:53:22;;;;;;;;;;;19.00;99.90;;;;;;5068996;28;20127;-69
2021/07/06 06:55:47;;;;;;;5.28;1.25;;;19.00;99.90;;;;;;5067843;28;19965;-69
2021/07/06 06:58:13;;;;;;;;;;;19.00;99.90;;;;;;5068323;28;20396;-69
2021/07/06 07:00:39;;;;;;;2.80;1.50;;;19.00;99.90;;;;;;5067725;28;19924;-74
2021/07/06 07:03:04;;;;;;;;;;;19.00;99.90;;;;;;5069440;28;20464;-73
2021/07/06 07:05:30;;;;;;;2.45;1.55;;;19.00;99.90;;;;;;5061749;28;19923;-72
2021/07/06 07:07:58;;;;;;;;;;;19.00;99.90;;;;;;5068823;28;20051;-71
2021/07/06 07:10:26;;;;;;;5.45;1.15;;;18.90;99.90;;;;;;5068979;28;20371;-72
2021/07/06 07:12:53;;;;;;;2.28;1.25;;;18.90;99.90;;;;;;5066743;28;20047;-71
2021/07/06 07:15:20;;;;;;;3.58;1.33;;;18.80;99.90;;;;;;5067497;28;20091;-65
2021/07/06 07:17:46;;;;;;;1.95;1.30;;;18.70;99.90;;;;;;5068540;28;20500;-71
2021/07/06 07:20:14;;;;;;;;;;;18.60;99.90;;;;;;5070326;28;20041;-71
2021/07/06 07:22:42;;;;;;;2.45;1.23;;;18.50;99.90;;;;;;5012046;28;19928;-74
2021/07/06 07:25:11;;;;;;;3.70;1.25;;;18.40;99.90;;;;;;5013392;28;20053;-74
2021/07/06 07:27:37;;;;;;;6.20;2.03;;;18.40;99.90;;;;;;4994546;28;20069;-80
2021/07/06 07:30:05;;;;;;;2.60;1.35;;;18.30;99.90;;;;;;5017704;28;20037;-75
2021/07/06 07:32:32;;;;;;;3.17;1.25;;;18.30;99.90;;;;;;5032880;28;20041;-76
2021/07/06 07:34:58;;;;;;;3.25;1.50;;;18.20;99.90;;;;;;5016977;28;20643;-74
2021/07/06 07:37:24;;;;;;;;;;;18.20;99.90;;;;;;5017486;28;20171;-75
2021/07/06 07:39:49;;;;;;;4.10;1.80;;;18.20;99.90;;;;;;5014357;28;20062;-74
2021/07/06 07:42:19;;;;;;;;;;;18.10;99.90;;;;;;5008651;28;20087;-76
2021/07/06 07:44:45;;;;;;;2.72;1.48;;;18.10;99.90;;;;;;5018433;28;19992;-75
2021/07/06 07:47:11;;;;;;;;;;;18.10;99.90;;;;;;5033323;28;20048;-75
2021/07/06 07:49:37;;;;;;;2.28;1.48;;;18.00;99.90;;;;;;5035159;28;19917;-77
2021/07/06 07:52:04;;;;;;;1.98;1.40;;;18.00;99.90;;;;;;5034336;28;20041;-77
2021/07/06 07:54:30;;;;;;;4.45;1.63;;;17.90;99.90;;;;;;5035076;28;20048;-75
2021/07/06 07:57:09;;;;;;;3.38;1.75;;;17.90;99.90;;;;;;5034807;28;20041;-75
2021/07/06 07:59:35;;;;;;;5.15;1.90;;;17.80;99.90;;;;;;5015056;28;20037;-75
2021/07/06 08:02:01;;;;;;;5.32;1.50;;;17.80;99.90;;;;;;5028862;28;20069;-75
2021/07/06 08:04:29;;;;;;;;;;;17.80;99.90;;;;;;5028616;28;20077;-75
2021/07/06 08:06:56;;;;;;;8.80;5.55;;;17.90;99.90;;;;;;5024583;28;19926;-76
2021/07/06 08:09:23;;;;;;;3.15;2.08;;;17.90;99.90;;;;;;5019693;28;20053;-75
2021/07/06 08:11:49;;;;;;;;;;;17.90;99.90;;;;;;5021702;28;20559;-76
2021/07/06 08:14:14;;;;;;;2.70;1.45;;;17.90;99.90;;;;;;5022202;28;20321;-75
2021/07/06 08:16:40;;;;;;;;;;;17.90;99.90;;;;;;5022511;28;20512;-75
2021/07/06 08:19:06;;;;;;;2.70;1.10;;;18.00;99.90;;;;;;5022022;28;19917;-75
2021/07/06 08:21:32;;;;;;;1.42;1.23;;;17.90;99.90;;;;;;5019863;28;20054;-75
2021/07/06 08:24:01;;;;;;;;;;;17.90;99.90;;;;;;4997259;28;20099;-76
2021/07/06 08:26:27;;;;;;;6.47;4.00;;;18.00;99.90;;;;;;4996939;28;19928;-74
2021/07/06 08:28:53;;;;;;;;;;;18.00;99.90;;;;;;5006324;28;20038;-75
2021/07/06 08:31:19;;;;;;;3.58;1.63;;;18.00;99.90;;;;;;5033378;28;19968;-75
2021/07/06 08:33:45;;;;;;;;;;;18.00;99.90;;;;;;5017090;28;20131;-75
2021/07/06 08:36:10;;;;;;;3.35;1.40;;;17.90;99.90;;;;;;5015910;28;20362;-75
2021/07/06 08:38:40;;;;;;;1.35;1.08;;;17.90;99.90;;;;;;5015531;28;20037;-75
2021/07/06 08:41:06;;;;;;;2.45;1.38;;;17.90;99.90;;;;;;5015913;28;20048;-75
2021/07/06 08:43:33;;;;;;;2.65;1.25;;;17.90;99.90;;;;;;5010955;28;20056;-75
2021/07/06 08:46:01;;;;;;;3.15;1.20;;;18.00;99.90;;;;;;5015562;28;20071;-75
2021/07/06 08:48:33;;;;;;;5.78;1.50;;;17.90;99.90;;;;;;5000858;28;20042;-75
2021/07/06 08:51:04;;;;;;;4.07;1.40;;;17.90;99.90;;;;;;5031922;28;20576;-75
2021/07/06 08:53:30;;;;;;;4.65;1.60;;;17.90;99.90;;;;;;5028240;28;20030;-76
2021/07/06 08:55:57;;;;;;;;;;;17.80;99.90;;;;;;5016410;28;20509;-75
2021/07/06 08:58:24;;;;;;;2.72;1.38;;;17.80;99.90;;;;;;5031287;28;19921;-76
2021/07/06 09:00:49;;;;;;;;;;;17.80;99.90;;;;;;5015679;28;20061;-75
2021/07/06 09:03:15;;;;;;;6.55;1.65;;;17.70;99.90;;;;;;5016033;28;19956;-75
2021/07/06 09:05:41;;;;;;;;;;;17.70;99.90;;;;;;5016378;28;20049;-76
2021/07/06 09:08:08;;;;;;;7.13;1.98;;;17.70;99.90;;;;;;5013431;28;19917;-76
2021/07/06 09:10:38;;;;;;;6.80;2.13;;;17.60;99.90;;;;;;5005772;28;20120;-76
2021/07/06 09:13:26;;;;;;;6.32;1.23;;;17.60;99.90;;;;;;5012180;28;20077;-75
2021/07/06 09:15:53;;;;;;;2.80;1.10;;;17.50;99.90;;;;;;5040306;28;20041;-76
2021/07/06 09:18:21;;;;;;;2.72;1.63;;;17.50;99.90;;;;;;5016218;28;20450;-76
2021/07/06 09:21:12;;;;;;;4.70;1.73;;;17.40;99.90;;;;;;5031772;28;20091;-76
2021/07/06 09:23:42;;;;;;;3.70;2.35;;;17.40;99.90;;;;;;5033060;28;20048;-75
2021/07/06 09:26:12;;;;;;;3.88;1.40;;;17.40;99.90;;;;;;5029500;28;20048;-76
2021/07/06 09:28:42;;;;;;;5.43;1.70;;;17.50;99.90;;;;;;5030125;28;20052;-76
2021/07/06 09:31:18;;;;;;;4.35;1.20;;;17.50;99.90;;;;;;5015759;28;20486;-75
2021/07/06 09:33:55;;;;;;;3.28;1.33;;;17.50;99.90;;;;;;5040559;28;20490;-76
2021/07/06 09:36:35;;;;;;;5.43;1.52;;;17.40;99.90;;;;;;5014939;28;20045;-76
2021/07/06 09:39:27;;;;;;;5.22;1.83;;;17.30;99.90;;;;;;5030145;28;20142;-77
2021/07/06 09:41:58;;;;;;;8.43;2.55;;;17.20;99.90;;;;;;5006244;28;20048;-75
2021/07/06 09:44:28;;;;;;;1.67;1.10;;;17.20;99.90;;;;;;5031763;28;20045;-74
2021/07/06 09:46:56;;;;;;;0.88;0.60;;;17.20;99.90;;;;;;5023865;28;20038;-76
2021/07/06 09:49:28;;;;;;;1.55;0.45;;;17.20;99.90;;;;;;5014394;28;20076;-75
2021/07/06 09:51:55;;;;;;;2.80;0.60;;;17.30;99.90;;;;;;5025964;28;20045;-76
2021/07/06 09:54:30;;;;;;;0.93;0.60;;;17.30;99.90;;;;;;5013518;28;20040;-75
2021/07/06 09:57:23;;;;;;;2.58;0.50;;;17.30;99.90;;;;;;5014135;28;20578;-74
2021/07/06 10:00:12;;;;;;;0.85;0.63;;;17.30;99.90;;;;;;5012367;28;20045;-76
2021/07/06 10:02:41;;;;;;;0.63;0.45;;;17.40;99.90;;;;;;5030213;28;20513;-75
2021/07/06 10:05:10;;;;;;;0.80;0.47;;;17.40;99.90;;;;;;5013343;28;20033;-75
2021/07/06 10:07:39;;;;;;;0.65;0.60;;;17.30;99.90;;;;;;5010903;28;20507;-76
2021/07/06 10:10:11;;;;;;;0.85;0.80;;;17.30;99.90;;;;;;5013958;28;20076;-76
2021/07/06 10:12:39;;;;;;;1.17;0.82;;;17.30;99.90;;;;;;5013202;28;20044;-77
2021/07/06 10:15:10;;;;;;;1.30;1.10;;;17.30;99.90;;;;;;5028293;28;20052;-77
2021/07/06 10:17:38;;;;;;;1.90;1.80;;;17.30;99.90;;;;;;5030781;28;20037;-78
2021/07/06 10:20:08;;;;;;;1.50;1.30;;;17.20;99.90;;;;;;5031209;28;20048;-77
2021/07/06 10:22:34;;;;;;;1.48;1.35;;;17.10;99.90;;;;;;5030299;28;20037;-77
2021/07/06 10:25:01;;;;;;;;;;;17.10;99.90;;;;;;5032229;28;20083;-76
2021/07/06 10:27:32;;;;;;;1.30;1.00;;;17.10;99.90;;;;;;5029750;28;19928;-76
2021/07/06 10:30:16;;;;;;;1.52;1.33;;;17.00;99.90;;;;;;5030614;28;20037;-77
2021/07/06 10:32:54;;;;;;;4.32;1.30;;;17.00;99.90;;;;;;5011809;28;20037;-76
2021/07/06 10:35:41;;;;;;;2.05;1.00;;;17.00;99.90;;;;;;5028068;28;20040;-76
2021/07/06 10:38:25;;;;;;;;;;;17.10;99.90;;;;;;5029029;28;20045;-76
2021/07/06 10:40:51;;;;;;;1.83;1.08;;;17.10;99.90;;;;;;5028492;28;19916;-77
2021/07/06 10:43:35;;;;;;;;;;;17.20;99.90;;;;;;5020470;28;20406;-76
2021/07/06 10:46:19;;;;;;;1.00;0.70;;;17.20;99.90;;;;;;5028420;28;19921;-76
2021/07/06 10:48:46;;;;;;;1.30;0.60;;;17.30;99.90;;;;;;5025698;28;20037;-76
2021/07/06 10:51:34;;;;;;;1.20;0.52;;;17.30;99.90;;;;;;5008879;28;20069;-78
2021/07/06 10:54:23;;;;;;;0.55;0.40;;;17.30;99.90;;;;;;5036021;28;20071;-77
2021/07/06 10:56:55;;;;;;;0.68;0.40;;;17.30;99.90;;;;;;5012102;28;20052;-76
2021/07/06 10:59:35;;;;;;;1.15;0.60;;;17.30;99.90;;;;;;5012898;28;20033;-77
2021/07/06 11:02:04;;;;;;;1.00;0.60;;;17.40;99.90;;;;;;5012736;28;20041;-78
2021/07/06 11:04:43;;;;;;;0.77;0.52;;;17.40;99.90;;;;;;5018076;28;20048;-76
2021/07/06 11:07:37;;;;;;;1.95;0.70;;;17.40;99.90;;;;;;5031383;28;20117;-76
2021/07/06 11:10:05;;;;;;;0.75;0.60;;;17.50;99.90;;;;;;5007279;28;20088;-76
2021/07/06 11:12:46;;;;;;;2.38;0.63;;;17.70;99.90;;;;;;5013363;28;20368;-77
2021/07/06 11:15:12;;;;;;;1.73;0.70;;;17.80;99.90;;;;;;5013355;28;20081;-78
2021/07/06 11:17:42;;;;;;;;;;;17.90;99.90;;;;;;5030921;28;20080;-75
2021/07/06 11:20:28;;;;;;;4.20;0.75;;;17.90;99.90;;;;;;5030504;28;19917;-75
2021/07/06 11:22:56;;;;;;;1.13;0.67;;;18.10;99.90;;;;;;5030770;28;20041;-76
2021/07/06 11:25:36;;;;;;;1.25;0.60;;;18.10;99.90;;;;;;5014019;28;20050;-76
2021/07/06 11:28:08;;;;;;;1.05;0.55;;;18.10;99.90;;;;;;5030891;28;20052;-77
2021/07/06 11:30:51;;;;;;;1.40;0.80;;;18.20;99.90;;;;;;5009921;28;20482;-76
2021/07/06 11:33:19;;;;;;;2.97;0.98;;;18.10;99.90;;;;;;4999152;28;20041;-77
2021/07/06 11:35:50;;;;;;;1.08;0.50;;;18.10;99.90;;;;;;5013077;28;20091;-77
2021/07/06 11:38:30;;;;;;;1.02;0.82;;;18.20;99.90;;;;;;5012986;28;20505;-77
2021/07/06 11:41:01;;;;;;;1.95;0.68;;;18.20;99.90;;;;;;5013561;28;20128;-79
2021/07/06 11:43:29;;;;;;;1.60;0.80;;;18.10;99.90;;;;;;5029745;28;20371;-77
2021/07/06 11:46:01;;;;;;;1.15;0.70;;;18.00;99.90;;;;;;5029554;28;20132;-75
2021/07/06 11:48:34;;;;;;;2.75;0.90;;;18.00;99.90;;;;;;5031281;28;20041;-78
2021/07/06 11:51:03;;;;;;;4.35;0.85;;;18.00;99.90;;;;;;5029522;28;20046;-78
2021/07/06 11:53:31;;;;;;;1.48;0.60;;;17.80;99.90;;;;;;5030513;28;20050;-77
2021/07/06 11:55:59;;;;;;;0.80;0.75;;;17.80;99.90;;;;;;5030003;28;20540;-77
2021/07/06 11:58:28;;;;;;;1.83;0.70;;;17.70;99.90;;;;;;5028143;28;20030;-76
2021/07/06 12:00:56;;;;;;;1.48;0.70;;;17.60;99.90;;;;;;5024474;28;20483;-78
2021/07/06 12:03:30;;;;;;;4.07;0.88;;;17.50;99.90;;;;;;5013439;28;20041;-77
2021/07/06 12:06:02;;;;;;;0.73;0.70;;;17.50;99.90;;;;;;5031188;28;20501;-77
2021/07/06 12:08:37;;;;;;;1.15;0.63;;;17.40;99.90;;;;;;5012898;28;20041;-77
2021/07/06 12:11:10;;;;;;;1.05;0.85;;;17.40;99.90;;;;;;5013200;28;20060;-76
2021/07/06 12:13:39;;;;;;;2.47;1.00;;;17.40;99.90;;;;;;5030816;28;20041;-75
2021/07/06 12:16:08;;;;;;;2.95;1.08;;;17.50;99.90;;;;;;5032342;28;20041;-75
2021/07/06 12:18:37;;;;;;;1.08;0.82;;;17.70;99.90;;;;;;5017089;28;20521;-76
2021/07/06 12:21:06;;;;;;;1.63;0.80;;;18.10;99.90;;;;;;5016588;28;20049;-76
2021/07/06 12:23:32;;;;;;;3.35;0.80;;;18.40;99.90;;;;;;5016247;28;20038;-75
2021/07/06 12:25:58;;;;;;;;;;;18.60;99.90;;;;;;5017083;28;20087;-75
2021/07/06 12:28:25;;;;;;;0.80;0.70;;;18.90;99.90;;;;;;5033208;28;19921;-76
2021/07/06 12:31:16;;;;;;;1.77;0.63;;;19.10;99.90;;;;;;5032782;28;20101;-76
2021/07/06 12:34:02;;;;;;;2.88;0.70;;;19.00;99.90;;;;;;5028564;28;20033;-76
2021/07/06 12:36:43;;;;;;;1.45;0.70;;;18.80;99.90;;;;;;5019333;28;20095;-75
2021/07/06 12:39:14;;;;;;;0.80;0.70;;;18.80;99.90;;;;;;5015963;28;20139;-76
2021/07/06 12:42:12;;;;;;;1.27;0.80;;;18.70;99.90;;;;;;5008589;28;20474;-77
2021/07/06 12:44:47;;;;;;;1.95;0.88;;;18.60;99.90;;;;;;5003565;28;20046;-76
2021/07/06 12:47:33;;;;;;;1.35;0.68;;;18.70;99.90;;;;;;5033175;28;20044;-76
2021/07/06 12:50:28;;;;;;;1.15;0.73;;;18.70;99.90;;;;;;5034242;28;20557;-77
2021/07/06 12:52:58;;;;;;;7.22;1.02;;;18.60;99.90;;;;;;5013599;28;20103;-76
2021/07/06 12:55:29;;;;;;;2.08;0.70;;;18.50;99.90;;;;;;5016548;28;20049;-77
2021/07/06 12:58:08;;;;;;;1.50;1.08;;;18.50;99.90;;;;;;5015934;28;20037;-79
2021/07/06 13:00:38;;;;;;;6.13;0.95;;;18.40;99.90;;;;;;5025294;28;20092;-77
2021/07/06 13:03:05;;;;;;;1.30;0.75;;;18.30;99.90;;;;;;5015926;28;20046;-77
2021/07/06 13:05:37;;;;;;;4.65;0.90;;;18.40;99.90;;;;;;5015707;28;20125;-78
2021/07/06 13:08:25;;;;;;;4.47;1.10;;;18.40;99.90;;;;;;5015343;28;20049;-78
2021/07/06 13:10:56;;;;;;;2.78;1.00;;;18.30;99.90;;;;;;5032712;28;20128;-77
2021/07/06 13:13:27;;;;;;;1.90;0.95;;;18.30;99.90;;;;;;5011671;28;20084;-78